createdAt,value
2019-05-14T00:01:51.423Z,100539.83
2019-05-14T00:04:22.384Z,100539.86
2019-05-14T00:06:53.268Z,100535.17
2019-05-14T00:09:24.047Z,100531.28
2019-05-14T00:11:54.846Z,100532.85
2019-05-14T00:14:36.520Z,100530.45
2019-05-14T00:16:58.188Z,100528.47
2019-05-14T00:19:28.964Z,100532.01
2019-05-14T00:22:01.936Z,100534.39
2019-05-14T00:24:32.509Z,100535.36
2019-05-14T00:27:03.160Z,100533.35
2019-05-14T00:29:34.165Z,100534.39
2019-05-14T00:32:05.093Z,100532.66
2019-05-14T00:34:35.944Z,100533.13
2019-05-14T00:37:06.618Z,100535.84
2019-05-14T00:39:38.489Z,100537.27
2019-05-14T00:42:09.264Z,100530.78
2019-05-14T00:44:51.602Z,100537.00
2019-05-14T00:47:12.524Z,100536.33
2019-05-14T00:49:43.193Z,100534.71
2019-05-14T00:52:14.108Z,100531.91
2019-05-14T00:54:44.693Z,100526.08
2019-05-14T00:57:15.500Z,100524.58
2019-05-14T00:59:46.173Z,100519.63
2019-05-14T01:02:16.979Z,100516.99
2019-05-14T01:04:47.964Z,100521.79
2019-05-14T01:07:21.012Z,100518.80
2019-05-14T01:09:52.529Z,100520.38
2019-05-14T01:12:23.345Z,100514.05
2019-05-14T01:15:07.208Z,100515.58
2019-05-14T01:17:27.690Z,100515.73
2019-05-14T01:19:58.627Z,100515.40
2019-05-14T01:22:31.601Z,100508.38
2019-05-14T01:25:01.940Z,100503.34
2019-05-14T01:27:32.763Z,100500.95
2019-05-14T01:30:03.746Z,100500.95
2019-05-14T01:32:35.711Z,100490.26
2019-05-14T01:35:06.606Z,100494.64
2019-05-14T01:37:37.409Z,100491.66
2019-05-14T01:40:11.207Z,100497.98
2019-05-14T01:42:41.852Z,100490.48
2019-05-14T01:45:24.226Z,100488.37
2019-05-14T01:47:46.220Z,100485.74
2019-05-14T01:50:17.262Z,100486.47
2019-05-14T01:52:47.955Z,100490.16
2019-05-14T01:55:18.631Z,100483.64
2019-05-14T01:57:51.580Z,100490.53
2019-05-14T02:00:22.278Z,100485.82
2019-05-14T02:02:52.975Z,100484.15
2019-05-14T02:05:23.815Z,100476.43
2019-05-14T02:07:54.618Z,100475.57
2019-05-14T02:10:25.997Z,100476.73
2019-05-14T02:12:56.840Z,100474.58
2019-05-14T02:15:37.166Z,100482.96
2019-05-14T02:18:02.216Z,100479.11
2019-05-14T02:20:32.676Z,100474.09
2019-05-14T02:23:03.359Z,100473.74
2019-05-14T02:25:34.268Z,100476.29
2019-05-14T02:28:05.020Z,100472.47
2019-05-14T02:30:48.424Z,100474.05
2019-05-14T02:33:09.233Z,100467.04
2019-05-14T02:35:40.225Z,100472.73
2019-05-14T02:38:10.927Z,100466.38
2019-05-14T02:40:41.829Z,100462.84
2019-05-14T02:43:13.010Z,100459.13
2019-05-14T02:46:00.616Z,100461.82
2019-05-14T02:48:19.869Z,100461.31
2019-05-14T02:50:49.680Z,100455.76
2019-05-14T02:53:20.792Z,100450.76
2019-05-14T02:55:51.581Z,100447.11
2019-05-14T02:58:22.353Z,100448.56
2019-05-14T03:00:53.230Z,100446.85
2019-05-14T03:03:25.224Z,100445.65
2019-05-14T03:05:56.189Z,100445.81
2019-05-14T03:08:30.116Z,100446.00
2019-05-14T03:11:00.408Z,100450.34
2019-05-14T03:13:31.540Z,100449.37
2019-05-14T03:16:20.670Z,100451.44
2019-05-14T03:18:35.678Z,100445.89
2019-05-14T03:21:09.294Z,100444.06
2019-05-14T03:23:39.575Z,100441.69
2019-05-14T03:26:10.560Z,100442.37
2019-05-14T03:28:41.619Z,100446.02
2019-05-14T03:31:13.397Z,100444.50
2019-05-14T03:33:45.028Z,100438.31
2019-05-14T03:36:20.008Z,100442.28
2019-05-14T03:38:50.228Z,100445.80
2019-05-14T03:41:21.198Z,100442.64
2019-05-14T03:43:52.238Z,100438.80
2019-05-14T03:46:43.663Z,100431.91
2019-05-14T03:48:55.788Z,100439.27
2019-05-14T03:51:29.602Z,100441.78
2019-05-14T03:54:05.919Z,100437.59
2019-05-14T03:56:31.960Z,100438.27
2019-05-14T03:59:03.017Z,100434.79
2019-05-14T04:01:33.979Z,100437.39
2019-05-14T04:04:05.066Z,100432.69
2019-05-14T04:06:40.093Z,100431.16
2019-05-14T04:09:09.824Z,100442.25
2019-05-14T04:11:43.035Z,100436.89
2019-05-14T04:14:20.042Z,100448.12
2019-05-14T04:17:05.401Z,100446.98
2019-05-14T04:19:29.509Z,100442.15
2019-05-14T04:22:00.497Z,100449.04
2019-05-14T04:24:36.905Z,100446.85
2019-05-14T04:27:12.724Z,100448.20
2019-05-14T04:29:42.198Z,100455.76
2019-05-14T04:32:14.363Z,100447.72
2019-05-14T04:34:45.454Z,100451.75
2019-05-14T04:37:19.795Z,100446.20
2019-05-14T04:39:50.576Z,100451.38
2019-05-14T04:42:21.467Z,100451.38
2019-05-14T04:44:52.480Z,100454.41
2019-05-14T04:47:32.220Z,100451.72
2019-05-14T04:49:58.940Z,100451.72
2019-05-14T04:52:29.314Z,100458.77
2019-05-14T04:55:00.305Z,100466.00
2019-05-14T04:57:31.186Z,100451.05
2019-05-14T05:00:02.147Z,100458.73
2019-05-14T05:02:34.078Z,100458.54
2019-05-14T05:05:04.970Z,100450.30
2019-05-14T05:07:35.917Z,100455.00
2019-05-14T05:10:09.767Z,100462.67
2019-05-14T05:12:39.428Z,100458.96
2019-05-14T05:15:10.497Z,100458.97
2019-05-14T05:17:48.246Z,100451.52
2019-05-14T05:20:13.973Z,100454.16
2019-05-14T05:22:48.590Z,100453.84
2019-05-14T05:25:19.013Z,100453.44
2019-05-14T05:27:49.455Z,100454.23
2019-05-14T05:30:19.969Z,100438.55
2019-05-14T05:32:50.434Z,100443.13
2019-05-14T05:35:21.368Z,100448.50
2019-05-14T05:37:52.252Z,100454.56
2019-05-14T05:40:23.121Z,100447.69
2019-05-14T05:42:53.857Z,100450.81
2019-05-14T05:45:24.633Z,100447.84
2019-05-14T05:48:00.995Z,100445.38
2019-05-14T05:50:28.951Z,100434.12
2019-05-14T05:52:59.835Z,100437.39
2019-05-14T05:55:31.592Z,100441.27
2019-05-14T05:58:02.292Z,100438.06
2019-05-14T06:00:35.608Z,100440.48
2019-05-14T06:03:10.265Z,100440.55
2019-05-14T06:05:39.189Z,100442.33
2019-05-14T06:08:10.325Z,100445.86
2019-05-14T06:10:41.265Z,100446.22
2019-05-14T06:13:14.034Z,100452.86
2019-05-14T06:15:48.701Z,100456.56
2019-05-14T06:18:21.735Z,100444.15
2019-05-14T06:20:49.891Z,100453.53
2019-05-14T06:23:20.676Z,100445.59
2019-05-14T06:25:51.358Z,100441.96
2019-05-14T06:28:22.225Z,100432.86
2019-05-14T06:30:53.166Z,100437.55
2019-05-14T06:33:24.048Z,100429.84
2019-05-14T06:35:54.878Z,100437.22
2019-05-14T06:38:25.571Z,100430.85
2019-05-14T06:40:59.083Z,100432.78
2019-05-14T06:43:29.042Z,100428.50
2019-05-14T06:46:00.138Z,100427.66
2019-05-14T06:48:34.647Z,100420.91
2019-05-14T06:51:03.279Z,100426.27
2019-05-14T06:53:35.782Z,100424.20
2019-05-14T06:56:08.178Z,100421.08
2019-05-14T06:58:39.218Z,100418.88
2019-05-14T07:01:11.082Z,100425.16
2019-05-14T07:03:41.795Z,100427.20
2019-05-14T07:06:12.669Z,100421.06
2019-05-14T07:08:43.495Z,100423.59
2019-05-14T07:11:14.567Z,100419.19
2019-05-14T07:13:45.273Z,100415.13
2019-05-14T07:19:38.990Z,100417.53
2019-05-14T07:22:09.726Z,100416.03
2019-05-14T07:24:40.821Z,100407.53
2019-05-14T07:27:11.891Z,100407.70
2019-05-14T07:29:43.648Z,100401.75
2019-05-14T07:32:14.492Z,100403.02
2019-05-14T07:34:45.181Z,100400.39
2019-05-14T07:37:18.118Z,100396.80
2019-05-14T07:39:48.920Z,100394.95
2019-05-14T07:42:19.909Z,100390.05
2019-05-14T07:44:50.673Z,100389.54
2019-05-14T07:47:21.581Z,100374.70
2019-05-14T07:49:52.490Z,100366.41
2019-05-14T07:52:24.140Z,100364.04
2019-05-14T07:54:54.942Z,100355.59
2019-05-14T07:57:28.309Z,100348.42
2019-05-14T07:59:58.879Z,100340.27
2019-05-14T08:02:30.685Z,100340.88
2019-05-14T08:05:01.593Z,100350.75
2019-05-14T08:07:32.544Z,100345.32
2019-05-14T08:10:03.446Z,100330.53
2019-05-14T08:12:34.726Z,100350.66
2019-05-14T08:15:15.289Z,100337.09
2019-05-14T08:17:38.876Z,100344.31
2019-05-14T08:20:10.806Z,100340.62
2019-05-14T08:22:42.678Z,100333.20
2019-05-14T08:25:14.838Z,100335.03
2019-05-14T08:27:48.042Z,100323.41
2019-05-14T08:30:19.793Z,100321.77
2019-05-14T08:32:50.618Z,100320.28
2019-05-14T08:35:21.490Z,100323.06
2019-05-14T08:38:04.659Z,100309.94
2019-05-14T08:40:24.943Z,100312.78
2019-05-14T08:42:55.607Z,100317.34
2019-05-14T08:45:28.243Z,100314.86
2019-05-14T08:47:59.031Z,100312.32
2019-05-14T08:50:30.029Z,100309.61
2019-05-14T08:53:00.811Z,100309.20
2019-05-14T08:55:31.599Z,100315.98
2019-05-14T08:58:02.470Z,100318.34
2019-05-14T09:00:33.298Z,100314.44
2019-05-14T09:03:04.394Z,100315.22
2019-05-14T09:05:35.351Z,100312.89
2019-05-14T09:08:08.643Z,100316.81
2019-05-14T09:10:40.290Z,100318.87
2019-05-14T09:13:11.063Z,100309.19
2019-05-14T09:15:41.904Z,100310.78
2019-05-14T09:18:12.673Z,100312.07
2019-05-14T09:20:43.370Z,100310.39
2019-05-14T09:23:14.155Z,100293.86
2019-05-14T09:25:48.242Z,100287.45
2019-05-14T09:28:18.846Z,100288.43
2019-05-14T09:30:49.793Z,100288.81
2019-05-14T09:33:24.302Z,100282.80
2019-05-14T09:36:09.508Z,100293.16
2019-05-14T09:38:25.441Z,100272.36
2019-05-14T09:41:08.403Z,100274.41
2019-05-14T09:43:28.819Z,100267.58
2019-05-14T09:45:59.756Z,100278.70
2019-05-14T09:48:30.427Z,100268.77
2019-05-14T09:51:01.186Z,100278.21
2019-05-14T09:53:31.993Z,100271.98
2019-05-14T09:56:02.797Z,100270.70
2019-05-14T09:58:33.690Z,100273.55
2019-05-14T10:01:04.430Z,100270.45
2019-05-14T10:03:35.283Z,100266.00
2019-05-14T10:06:09.440Z,100257.84
2019-05-14T10:08:39.519Z,100263.78
2019-05-14T10:11:10.339Z,100258.38
2019-05-14T10:13:41.305Z,100266.59
2019-05-14T10:16:12.306Z,100251.97
2019-05-14T10:18:43.046Z,100252.29
2019-05-14T10:21:13.883Z,100254.06
2019-05-14T10:23:44.859Z,100261.44
2019-05-14T10:26:18.335Z,100259.86
2019-05-14T10:28:48.615Z,100240.13
2019-05-14T10:31:19.483Z,100249.75
2019-05-14T10:33:50.223Z,100248.50
2019-05-14T10:36:21.194Z,100247.63
2019-05-14T10:38:51.888Z,100256.31
2019-05-14T10:41:22.796Z,100249.98
2019-05-14T10:43:53.554Z,100243.77
2019-05-14T10:46:24.321Z,100257.33
2019-05-14T10:48:55.204Z,100244.98
2019-05-14T10:51:28.192Z,100235.88
2019-05-14T10:53:59.352Z,100248.75
2019-05-14T10:56:30.175Z,100224.91
2019-05-14T10:59:00.735Z,100238.41
2019-05-14T11:01:31.580Z,100229.95
2019-05-14T11:04:02.503Z,100225.77
2019-05-14T11:06:33.366Z,100223.37
2019-05-14T11:09:05.979Z,100223.98
2019-05-14T11:11:38.206Z,100223.84
2019-05-14T11:14:09.163Z,100215.64
2019-05-14T11:16:41.845Z,100218.18
2019-05-14T11:19:12.577Z,100218.55
2019-05-14T11:21:43.475Z,100219.14
2019-05-14T11:24:14.313Z,100215.66
2019-05-14T11:26:45.090Z,100207.45
2019-05-14T11:29:18.374Z,100202.05
2019-05-14T11:31:48.643Z,100204.59
2019-05-14T11:34:19.723Z,100201.66
2019-05-14T11:36:50.630Z,100197.54
2019-05-14T11:39:21.482Z,100196.81
2019-05-14T11:41:52.330Z,100194.40
2019-05-14T11:44:23.386Z,100183.62
2019-05-14T11:46:57.838Z,100184.70
2019-05-14T11:49:26.679Z,100187.95
2019-05-14T11:52:06.954Z,100185.06
2019-05-14T11:54:30.031Z,100181.81
2019-05-14T11:57:00.861Z,100168.98
2019-05-14T11:59:31.570Z,100173.67
2019-05-14T12:02:02.358Z,100174.24
2019-05-14T12:04:33.121Z,100159.35
2019-05-14T12:07:04.001Z,100158.58
2019-05-14T12:09:34.869Z,100155.92
2019-05-14T12:12:05.653Z,100163.34
2019-05-14T12:14:38.011Z,100150.68
2019-05-14T12:17:09.616Z,100145.33
2019-05-14T12:19:43.558Z,100146.94
2019-05-14T12:22:13.147Z,100139.98
2019-05-14T12:24:43.950Z,100138.31
2019-05-14T12:27:14.742Z,100136.15
2019-05-14T12:29:45.499Z,100136.63
2019-05-14T12:32:18.706Z,100137.32
2019-05-14T12:34:49.092Z,100149.59
2019-05-14T12:37:19.972Z,100144.71
2019-05-14T12:39:50.665Z,100128.20
2019-05-14T12:42:21.439Z,100125.66
2019-05-14T12:44:52.399Z,100148.87
2019-05-14T12:47:23.422Z,100149.04
2019-05-14T12:49:54.089Z,100146.56
2019-05-14T12:52:26.155Z,100139.52
2019-05-14T12:54:59.697Z,100145.14
2019-05-14T12:57:30.129Z,100136.70
2019-05-14T13:00:01.872Z,100143.30
2019-05-14T13:02:32.756Z,100139.02
2019-05-14T13:05:03.584Z,100133.62
2019-05-14T13:07:34.401Z,100140.47
2019-05-14T13:10:05.913Z,100133.59
2019-05-14T13:12:38.951Z,100131.69
2019-05-14T13:15:09.433Z,100126.91
2019-05-14T13:17:40.040Z,100124.64
2019-05-14T13:20:13.653Z,100126.69
2019-05-14T13:22:46.290Z,100124.23
2019-05-14T13:25:18.784Z,100120.34
2019-05-14T13:27:48.716Z,100115.64
2019-05-14T13:30:19.678Z,100121.81
2019-05-14T13:32:51.406Z,100125.62
2019-05-14T13:35:22.078Z,100110.12
2019-05-14T13:37:52.877Z,100114.89
2019-05-14T13:40:23.808Z,100111.94
2019-05-14T13:42:54.637Z,100114.87
2019-05-14T13:45:25.519Z,100101.16
2019-05-14T13:47:58.903Z,100099.02
2019-05-14T13:50:29.515Z,100109.11
2019-05-14T13:53:06.803Z,100096.30
2019-05-14T13:55:33.939Z,100092.95
2019-05-14T13:58:04.870Z,100091.30
2019-05-14T14:00:35.556Z,100087.22
2019-05-14T14:03:09.338Z,100080.75
2019-05-14T14:05:39.515Z,100077.69
2019-05-14T14:08:10.299Z,100083.35
2019-05-14T14:10:46.012Z,100082.38
2019-05-14T14:13:13.542Z,100081.25
2019-05-14T14:15:44.335Z,100074.81
2019-05-14T14:18:15.101Z,100071.48
2019-05-14T14:20:48.808Z,100063.61
2019-05-14T14:23:25.660Z,100071.95
2019-05-14T14:25:54.778Z,100070.70
2019-05-14T14:28:23.632Z,100067.92
2019-05-14T14:30:54.386Z,100064.74
2019-05-14T14:33:25.138Z,100070.17
2019-05-14T14:35:58.413Z,100067.19
2019-05-14T14:38:29.362Z,100064.08
2019-05-14T14:41:01.295Z,100062.61
2019-05-14T14:43:32.162Z,100064.02
2019-05-14T14:46:06.578Z,100062.87
2019-05-14T14:48:35.635Z,100058.13
2019-05-14T14:51:08.475Z,100062.31
2019-05-14T14:53:52.492Z,100059.92
2019-05-14T14:56:11.726Z,100067.20
2019-05-14T14:58:42.651Z,100056.20
2019-05-14T15:01:13.441Z,100048.05
2019-05-14T15:03:44.239Z,100053.75
2019-05-14T15:06:15.195Z,100059.84
2019-05-14T15:08:46.083Z,100059.53
2019-05-14T15:11:16.961Z,100067.54
2019-05-14T15:13:48.399Z,100052.30
2019-05-14T15:16:20.170Z,100060.62
2019-05-14T15:18:52.167Z,100055.58
2019-05-14T15:21:23.031Z,100052.83
2019-05-14T15:24:05.994Z,100053.45
2019-05-14T15:26:28.862Z,100057.47
2019-05-14T15:28:58.960Z,100049.47
2019-05-14T15:31:30.658Z,100043.35
2019-05-14T15:34:01.480Z,100059.78
2019-05-14T15:36:32.528Z,100050.14
2019-05-14T15:39:05.026Z,100045.59
2019-05-14T15:41:35.762Z,100047.73
2019-05-14T15:44:09.093Z,100044.97
2019-05-14T15:46:41.853Z,100049.73
2019-05-14T15:49:11.828Z,100046.12
2019-05-14T15:51:42.678Z,100043.48
2019-05-14T15:54:34.895Z,100046.78
2019-05-14T15:56:46.003Z,100040.83
2019-05-14T15:59:19.116Z,100038.95
2019-05-14T16:01:49.250Z,100035.72
2019-05-14T16:04:20.842Z,100029.80
2019-05-14T16:06:51.881Z,100023.63
2019-05-14T16:09:22.929Z,100029.78
2019-05-14T16:11:54.675Z,100021.83
2019-05-14T16:14:25.543Z,100016.72
2019-05-14T16:16:56.310Z,100021.09
2019-05-14T16:19:28.500Z,100019.51
2019-05-14T16:21:59.315Z,100029.13
2019-05-14T16:24:30.179Z,100028.36
2019-05-14T16:27:00.979Z,100025.62
2019-05-14T16:29:41.785Z,100018.23
2019-05-14T16:32:04.460Z,100018.70
2019-05-14T16:34:35.489Z,100020.37
2019-05-14T16:37:10.947Z,100010.54
2019-05-14T16:39:39.219Z,100012.45
2019-05-14T16:42:10.043Z,100012.94
2019-05-14T16:44:40.945Z,100012.64
2019-05-14T16:47:11.458Z,100014.13
2019-05-14T16:49:42.249Z,100009.98
2019-05-14T16:52:13.061Z,100016.16
2019-05-14T16:54:43.906Z,100012.98
2019-05-14T16:57:14.612Z,100006.42
2019-05-14T16:59:45.197Z,99999.91
2019-05-14T17:02:15.726Z,100012.33
2019-05-14T17:04:48.275Z,100023.92
2019-05-14T17:07:19.017Z,100013.69
2019-05-14T17:09:49.852Z,100011.61
2019-05-14T17:12:22.902Z,100008.08
2019-05-14T17:14:52.556Z,100011.78
2019-05-14T17:17:23.120Z,100006.16
2019-05-14T17:19:53.853Z,100013.70
2019-05-14T17:22:29.607Z,100014.78
2019-05-14T17:24:58.652Z,100015.89
2019-05-14T17:27:29.202Z,100009.25
2019-05-14T17:29:59.922Z,100013.69
2019-05-14T17:32:30.726Z,100011.75
2019-05-14T17:35:01.814Z,100012.34
2019-05-14T17:37:32.727Z,100011.11
2019-05-14T17:40:03.616Z,100007.41
2019-05-14T17:42:35.500Z,100004.70
2019-05-14T17:45:08.255Z,100004.55
2019-05-14T17:47:39.402Z,100003.89
2019-05-14T17:50:10.312Z,100003.02
2019-05-14T17:52:44.371Z,100001.94
2019-05-14T17:55:13.271Z,100000.44
2019-05-14T17:57:47.355Z,99998.96
2019-05-14T18:00:18.187Z,100002.31
2019-05-14T18:02:49.156Z,100002.63
2019-05-14T18:05:19.770Z,100001.77
2019-05-14T18:07:50.524Z,100001.22
2019-05-14T18:10:21.297Z,100001.34
2019-05-14T18:12:52.248Z,100002.71
2019-05-14T18:15:23.536Z,100006.42
2019-05-14T18:17:54.203Z,100001.38
2019-05-14T18:20:25.662Z,100002.70
2019-05-14T18:22:58.458Z,100004.66
2019-05-14T18:25:29.430Z,100006.02
2019-05-14T18:28:00.372Z,100014.47
2019-05-14T18:30:31.273Z,100004.45
2019-05-14T18:33:02.205Z,100004.78
2019-05-14T18:35:33.170Z,100005.65
2019-05-14T18:38:04.066Z,100011.09
2019-05-14T18:40:34.911Z,100007.86
2019-05-14T18:43:08.610Z,100011.09
2019-05-14T18:45:39.209Z,100013.23
2019-05-14T18:48:09.837Z,100006.98
2019-05-14T18:50:40.739Z,100004.19
2019-05-14T18:53:13.162Z,100009.69
2019-05-14T18:55:44.138Z,100008.98
2019-05-14T18:58:15.137Z,100010.88
2019-05-14T19:00:47.863Z,100010.59
2019-05-14T19:03:19.786Z,100013.68
2019-05-14T19:05:50.709Z,100010.92
2019-05-14T19:08:21.620Z,100017.98
2019-05-14T19:10:52.515Z,100014.14
2019-05-14T19:13:23.412Z,100011.39
2019-05-14T19:15:54.089Z,100012.73
2019-05-14T19:18:25.712Z,100021.45
2019-05-14T19:20:59.172Z,100024.57
2019-05-14T19:23:29.852Z,100022.22
2019-05-14T19:26:00.473Z,100019.33
2019-05-14T19:28:31.449Z,100022.76
2019-05-14T19:31:02.248Z,100021.23
2019-05-14T19:33:33.186Z,100021.92
2019-05-14T19:36:04.197Z,100028.86
2019-05-14T19:38:35.236Z,100025.11
2019-05-14T19:41:08.437Z,100023.94
2019-05-14T19:43:38.612Z,100025.73
2019-05-14T19:46:09.447Z,100027.63
2019-05-14T19:48:40.265Z,100028.53
2019-05-14T19:51:11.026Z,100022.35
2019-05-14T19:53:42.091Z,100031.58
2019-05-14T19:56:12.622Z,100026.10
2019-05-14T19:58:43.330Z,100027.55
2019-05-14T20:01:14.232Z,100027.20
2019-05-14T20:03:45.065Z,100030.30
2019-05-14T20:06:18.520Z,100030.15
2019-05-14T20:08:48.433Z,100036.03
2019-05-14T20:11:19.460Z,100035.05
2019-05-14T20:13:50.363Z,100036.15
2019-05-14T20:16:21.070Z,100035.86
2019-05-14T20:18:51.831Z,100037.74
2019-05-14T20:21:23.342Z,100035.16
2019-05-14T20:23:54.010Z,100034.22
2019-05-14T20:26:24.918Z,100036.30
2019-05-14T20:28:55.812Z,100030.27
2019-05-14T20:31:26.647Z,100031.11
2019-05-14T20:33:59.136Z,100035.16
2019-05-14T20:36:30.065Z,100031.56
2019-05-14T20:39:01.060Z,100030.87
2019-05-14T20:41:33.249Z,100033.39
2019-05-14T20:44:05.166Z,100037.89
2019-05-14T20:46:38.086Z,100032.33
2019-05-14T20:49:08.945Z,100031.11
2019-05-14T20:51:39.950Z,100030.56
2019-05-14T20:54:10.726Z,100024.44
2019-05-14T20:56:41.526Z,100024.56
2019-05-14T20:59:12.402Z,100023.91
2019-05-14T21:01:43.290Z,100030.37
2019-05-14T21:04:14.071Z,100027.06
2019-05-14T21:06:44.864Z,100025.42
2019-05-14T21:09:15.610Z,100021.27
2019-05-14T21:11:49.045Z,100028.09
2019-05-14T21:14:19.302Z,100036.52
2019-05-14T21:16:50.111Z,100033.95
2019-05-14T21:19:20.870Z,100032.17
2019-05-14T21:21:51.673Z,100033.52
2019-05-14T21:24:22.607Z,100030.58
2019-05-14T21:26:53.313Z,100031.08
2019-05-14T21:29:24.134Z,100032.25
2019-05-14T21:31:54.774Z,100032.48
2019-05-14T21:34:25.682Z,100038.40
2019-05-14T21:36:58.164Z,100031.77
2019-05-14T21:39:29.196Z,100035.08
2019-05-14T21:42:00.017Z,100034.05
2019-05-14T21:44:30.882Z,100029.77
2019-05-14T21:47:02.254Z,100029.55
2019-05-14T21:49:33.025Z,100030.45
2019-05-14T21:52:03.767Z,100031.77
2019-05-14T21:54:34.541Z,100030.13
2019-05-14T21:57:05.225Z,100026.47
2019-05-14T21:59:35.985Z,100026.55
2019-05-14T22:02:07.769Z,100020.73
2019-05-14T22:04:38.750Z,100014.93
2019-05-14T22:07:09.589Z,100015.77
2019-05-14T22:09:41.295Z,100019.91
2019-05-14T22:12:12.183Z,100023.35
2019-05-14T22:14:43.280Z,100014.55
2019-05-14T22:17:14.029Z,100015.34
2019-05-14T22:19:44.689Z,100016.23
2019-05-14T22:22:15.344Z,100016.31
2019-05-14T22:24:48.889Z,100012.98
2019-05-14T22:27:20.862Z,100013.47
2019-05-14T22:29:51.520Z,100010.31
2019-05-14T22:32:22.314Z,100012.56
2019-05-14T22:34:53.062Z,100007.66
2019-05-14T22:37:23.928Z,100005.75
2019-05-14T22:39:54.847Z,100006.89
2019-05-14T22:42:28.134Z,99997.60
2019-05-14T22:44:58.499Z,99997.64
2019-05-14T22:47:29.262Z,100000.53
2019-05-14T22:50:00.012Z,99993.44
2019-05-14T22:52:31.341Z,99990.44
2019-05-14T22:55:02.129Z,99997.98
2019-05-14T22:57:34.663Z,99991.86
2019-05-14T23:00:06.156Z,99992.56
2019-05-14T23:02:38.676Z,99991.78
2019-05-14T23:05:09.640Z,99984.66
2019-05-14T23:07:40.604Z,99987.98
2019-05-14T23:10:11.441Z,99981.09
2019-05-14T23:12:42.204Z,99979.75
2019-05-14T23:15:14.432Z,99981.33
2019-05-14T23:17:45.223Z,99982.17
2019-05-14T23:20:16.292Z,99985.23
2019-05-14T23:22:49.159Z,99987.35
2019-05-14T23:25:19.840Z,99983.14
2019-05-14T23:27:50.372Z,99984.63
2019-05-14T23:30:31.103Z,99990.20
2019-05-14T23:33:02.038Z,99985.61
2019-05-14T23:35:33.115Z,99979.16
2019-05-14T23:38:04.119Z,99979.38
2019-05-14T23:40:34.926Z,99974.16
2019-05-14T23:43:05.665Z,99966.22
2019-05-14T23:45:38.113Z,99968.72
2019-05-14T23:48:09.616Z,99968.66
2019-05-14T23:50:41.511Z,99967.38
2019-05-14T23:53:12.316Z,99968.36
2019-05-14T23:55:43.033Z,99970.31
2019-05-14T23:58:13.924Z,99961.95
